sensor_id;sensor_type;location;lat;lon;timestamp;temperature;humidity
66722;SHT31;53633;49.932;10.884;2023-04-15T00:00:55;5.32;91.02
66722;SHT31;53633;49.932;10.884;2023-04-15T00:03:21;5.19;91.57
66722;SHT31;53633;49.932;10.884;2023-04-15T00:05:50;5.19;91.64
66722;SHT31;53633;49.932;10.884;2023-04-15T00:08:17;5.34;91.40
66722;SHT31;53633;49.932;10.884;2023-04-15T00:10:43;5.28;91.44
66722;SHT31;53633;49.932;10.884;2023-04-15T00:13:10;5.24;91.69
66722;SHT31;53633;49.932;10.884;2023-04-15T00:15:36;5.20;91.82
66722;SHT31;53633;49.932;10.884;2023-04-15T00:18:03;5.21;91.78
66722;SHT31;53633;49.932;10.884;2023-04-15T00:20:30;5.23;91.73
66722;SHT31;53633;49.932;10.884;2023-04-15T00:22:58;5.19;91.87
66722;SHT31;53633;49.932;10.884;2023-04-15T00:25:25;5.17;92.32
66722;SHT31;53633;49.932;10.884;2023-04-15T00:27:51;5.16;92.21
66722;SHT31;53633;49.932;10.884;2023-04-15T00:30:18;5.24;92.18
66722;SHT31;53633;49.932;10.884;2023-04-15T00:32:45;5.16;92.28
66722;SHT31;53633;49.932;10.884;2023-04-15T00:35:11;5.17;92.46
66722;SHT31;53633;49.932;10.884;2023-04-15T00:37:38;5.16;92.74
66722;SHT31;53633;49.932;10.884;2023-04-15T00:40:11;5.13;92.61
66722;SHT31;53633;49.932;10.884;2023-04-15T00:42:38;5.13;92.86
66722;SHT31;53633;49.932;10.884;2023-04-15T00:45:05;5.09;93.00
66722;SHT31;53633;49.932;10.884;2023-04-15T00:47:33;5.16;92.74
66722;SHT31;53633;49.932;10.884;2023-04-15T00:50:00;5.19;92.52
66722;SHT31;53633;49.932;10.884;2023-04-15T00:52:27;5.16;92.72
66722;SHT31;53633;49.932;10.884;2023-04-15T00:54:54;5.26;92.66
66722;SHT31;53633;49.932;10.884;2023-04-15T00:57:22;5.23;92.73
66722;SHT31;53633;49.932;10.884;2023-04-15T00:59:50;5.16;93.14
66722;SHT31;53633;49.932;10.884;2023-04-15T01:02:17;5.19;93.03
66722;SHT31;53633;49.932;10.884;2023-04-15T01:04:44;5.19;92.70
66722;SHT31;53633;49.932;10.884;2023-04-15T01:07:11;5.20;92.77
66722;SHT31;53633;49.932;10.884;2023-04-15T01:09:38;5.30;92.68
66722;SHT31;53633;49.932;10.884;2023-04-15T01:12:05;5.35;91.98
66722;SHT31;53633;49.932;10.884;2023-04-15T01:14:34;5.30;92.33
66722;SHT31;53633;49.932;10.884;2023-04-15T01:17:00;5.30;92.12
66722;SHT31;53633;49.932;10.884;2023-04-15T01:19:27;5.30;92.18
66722;SHT31;53633;49.932;10.884;2023-04-15T01:21:54;5.37;92.08
66722;SHT31;53633;49.932;10.884;2023-04-15T01:24:22;5.37;92.10
66722;SHT31;53633;49.932;10.884;2023-04-15T01:26:50;5.41;91.87
66722;SHT31;53633;49.932;10.884;2023-04-15T01:29:17;5.40;91.87
66722;SHT31;53633;49.932;10.884;2023-04-15T01:31:49;5.32;92.09
66722;SHT31;53633;49.932;10.884;2023-04-15T01:34:15;5.47;91.67
66722;SHT31;53633;49.932;10.884;2023-04-15T01:36:42;5.54;91.44
66722;SHT31;53633;49.932;10.884;2023-04-15T01:39:09;5.54;91.40
66722;SHT31;53633;49.932;10.884;2023-04-15T01:41:35;5.60;91.24
66722;SHT31;53633;49.932;10.884;2023-04-15T01:44:04;5.62;90.84
66722;SHT31;53633;49.932;10.884;2023-04-15T01:46:30;5.54;91.09
66722;SHT31;53633;49.932;10.884;2023-04-15T01:48:57;5.47;91.34
66722;SHT31;53633;49.932;10.884;2023-04-15T01:51:24;5.55;91.18
66722;SHT31;53633;49.932;10.884;2023-04-15T01:53:51;5.55;90.88
66722;SHT31;53633;49.932;10.884;2023-04-15T01:56:17;5.48;91.17
66722;SHT31;53633;49.932;10.884;2023-04-15T01:58:44;5.49;91.23
66722;SHT31;53633;49.932;10.884;2023-04-15T02:01:12;5.69;90.50
66722;SHT31;53633;49.932;10.884;2023-04-15T02:03:39;5.47;90.95
66722;SHT31;53633;49.932;10.884;2023-04-15T02:06:06;5.48;91.09
66722;SHT31;53633;49.932;10.884;2023-04-15T02:08:32;5.44;91.10
66722;SHT31;53633;49.932;10.884;2023-04-15T02:10:59;5.44;91.35
66722;SHT31;53633;49.932;10.884;2023-04-15T02:13:25;5.55;91.08
66722;SHT31;53633;49.932;10.884;2023-04-15T02:15:53;5.59;90.69
66722;SHT31;53633;49.932;10.884;2023-04-15T02:18:21;5.44;91.22
66722;SHT31;53633;49.932;10.884;2023-04-15T02:20:50;5.32;91.55
66722;SHT31;53633;49.932;10.884;2023-04-15T02:23:17;5.28;91.77
66722;SHT31;53633;49.932;10.884;2023-04-15T02:25:44;5.41;91.52
66722;SHT31;53633;49.932;10.884;2023-04-15T02:28:19;5.31;91.63
66722;SHT31;53633;49.932;10.884;2023-04-15T02:30:47;5.23;92.27
66722;SHT31;53633;49.932;10.884;2023-04-15T02:33:13;5.19;92.23
66722;SHT31;53633;49.932;10.884;2023-04-15T02:35:41;5.23;92.13
66722;SHT31;53633;49.932;10.884;2023-04-15T02:38:08;5.31;91.96
66722;SHT31;53633;49.932;10.884;2023-04-15T02:40:34;5.30;92.11
66722;SHT31;53633;49.932;10.884;2023-04-15T02:43:01;5.23;91.99
66722;SHT31;53633;49.932;10.884;2023-04-15T02:45:28;5.28;91.91
66722;SHT31;53633;49.932;10.884;2023-04-15T02:47:55;5.23;92.05
66722;SHT31;53633;49.932;10.884;2023-04-15T02:50:21;5.32;91.71
66722;SHT31;53633;49.932;10.884;2023-04-15T02:52:49;5.27;91.84
66722;SHT31;53633;49.932;10.884;2023-04-15T02:55:16;5.30;92.01
66722;SHT31;53633;49.932;10.884;2023-04-15T02:57:43;5.32;91.60
66722;SHT31;53633;49.932;10.884;2023-04-15T03:00:10;5.27;92.00
66722;SHT31;53633;49.932;10.884;2023-04-15T03:02:38;5.35;91.86
66722;SHT31;53633;49.932;10.884;2023-04-15T03:05:06;5.38;91.61
66722;SHT31;53633;49.932;10.884;2023-04-15T03:07:32;5.38;91.68
66722;SHT31;53633;49.932;10.884;2023-04-15T03:10:00;5.54;91.45
66722;SHT31;53633;49.932;10.884;2023-04-15T03:12:27;5.48;91.22
66722;SHT31;53633;49.932;10.884;2023-04-15T03:14:54;5.41;91.48
66722;SHT31;53633;49.932;10.884;2023-04-15T03:17:20;5.31;91.89
66722;SHT31;53633;49.932;10.884;2023-04-15T03:19:47;5.30;92.13
66722;SHT31;53633;49.932;10.884;2023-04-15T03:22:14;5.42;91.75
66722;SHT31;53633;49.932;10.884;2023-04-15T03:24:40;5.38;91.62
66722;SHT31;53633;49.932;10.884;2023-04-15T03:27:08;5.34;91.80
66722;SHT31;53633;49.932;10.884;2023-04-15T03:29:35;5.32;92.15
66722;SHT31;53633;49.932;10.884;2023-04-15T03:32:02;5.49;91.69
66722;SHT31;53633;49.932;10.884;2023-04-15T03:34:28;5.62;91.29
66722;SHT31;53633;49.932;10.884;2023-04-15T03:36:55;5.75;90.62
66722;SHT31;53633;49.932;10.884;2023-04-15T03:39:22;5.70;90.75
66722;SHT31;53633;49.932;10.884;2023-04-15T03:41:48;5.76;90.70
66722;SHT31;53633;49.932;10.884;2023-04-15T03:44:16;5.68;90.67
66722;SHT31;53633;49.932;10.884;2023-04-15T03:46:43;5.65;90.72
66722;SHT31;53633;49.932;10.884;2023-04-15T03:49:10;5.85;90.36
66722;SHT31;53633;49.932;10.884;2023-04-15T03:51:37;5.76;90.38
66722;SHT31;53633;49.932;10.884;2023-04-15T03:54:03;5.59;91.37
66722;SHT31;53633;49.932;10.884;2023-04-15T03:56:30;5.58;91.14
66722;SHT31;53633;49.932;10.884;2023-04-15T03:58:56;5.73;90.71
66722;SHT31;53633;49.932;10.884;2023-04-15T04:01:24;5.75;90.54
66722;SHT31;53633;49.932;10.884;2023-04-15T04:03:51;5.95;89.79
66722;SHT31;53633;49.932;10.884;2023-04-15T04:06:18;5.73;90.57
66722;SHT31;53633;49.932;10.884;2023-04-15T04:08:45;5.90;90.12
66722;SHT31;53633;49.932;10.884;2023-04-15T04:11:12;5.82;90.40
66722;SHT31;53633;49.932;10.884;2023-04-15T04:13:38;5.86;90.34
66722;SHT31;53633;49.932;10.884;2023-04-15T04:16:05;5.92;90.11
66722;SHT31;53633;49.932;10.884;2023-04-15T04:18:33;5.85;90.45
66722;SHT31;53633;49.932;10.884;2023-04-15T04:21:00;5.85;90.33
66722;SHT31;53633;49.932;10.884;2023-04-15T04:23:27;5.92;90.26
66722;SHT31;53633;49.932;10.884;2023-04-15T04:25:54;5.82;90.38
66722;SHT31;53633;49.932;10.884;2023-04-15T04:28:20;5.79;90.64
66722;SHT31;53633;49.932;10.884;2023-04-15T04:30:47;5.76;90.61
66722;SHT31;53633;49.932;10.884;2023-04-15T04:33:13;5.80;90.65
66722;SHT31;53633;49.932;10.884;2023-04-15T04:35:42;5.86;90.34
66722;SHT31;53633;49.932;10.884;2023-04-15T04:38:08;5.89;90.17
66722;SHT31;53633;49.932;10.884;2023-04-15T04:40:35;6.04;89.57
66722;SHT31;53633;49.932;10.884;2023-04-15T04:43:02;6.10;89.30
66722;SHT31;53633;49.932;10.884;2023-04-15T04:45:28;6.21;88.71
66722;SHT31;53633;49.932;10.884;2023-04-15T04:47:55;6.11;88.84
66722;SHT31;53633;49.932;10.884;2023-04-15T04:50:22;5.92;89.53
66722;SHT31;53633;49.932;10.884;2023-04-15T04:52:50;5.99;89.68
66722;SHT31;53633;49.932;10.884;2023-04-15T04:55:17;5.96;89.67
66722;SHT31;53633;49.932;10.884;2023-04-15T04:57:43;6.17;89.02
66722;SHT31;53633;49.932;10.884;2023-04-15T05:00:11;6.13;89.17
66722;SHT31;53633;49.932;10.884;2023-04-15T05:02:37;5.95;90.13
66722;SHT31;53633;49.932;10.884;2023-04-15T05:05:05;6.09;89.80
66722;SHT31;53633;49.932;10.884;2023-04-15T05:07:32;6.10;89.50
66722;SHT31;53633;49.932;10.884;2023-04-15T05:10:00;6.10;89.68
66722;SHT31;53633;49.932;10.884;2023-04-15T05:12:27;6.04;89.88
66722;SHT31;53633;49.932;10.884;2023-04-15T05:14:53;6.28;89.17
66722;SHT31;53633;49.932;10.884;2023-04-15T05:17:21;6.21;89.45
66722;SHT31;53633;49.932;10.884;2023-04-15T05:19:47;6.31;89.16
66722;SHT31;53633;49.932;10.884;2023-04-15T05:22:14;6.35;88.64
66722;SHT31;53633;49.932;10.884;2023-04-15T05:24:41;6.51;88.66
66722;SHT31;53633;49.932;10.884;2023-04-15T05:27:09;6.41;88.65
66722;SHT31;53633;49.932;10.884;2023-04-15T05:29:35;6.33;89.36
66722;SHT31;53633;49.932;10.884;2023-04-15T05:32:02;6.21;89.59
66722;SHT31;53633;49.932;10.884;2023-04-15T05:34:28;6.33;89.38
66722;SHT31;53633;49.932;10.884;2023-04-15T05:36:55;6.33;89.94
66722;SHT31;53633;49.932;10.884;2023-04-15T05:39:22;6.49;88.78
66722;SHT31;53633;49.932;10.884;2023-04-15T05:41:48;6.52;89.58
66722;SHT31;53633;49.932;10.884;2023-04-15T05:44:16;6.64;88.56
66722;SHT31;53633;49.932;10.884;2023-04-15T05:46:43;6.64;89.39
66722;SHT31;53633;49.932;10.884;2023-04-15T05:49:10;6.75;89.10
66722;SHT31;53633;49.932;10.884;2023-04-15T05:51:36;6.78;89.21
66722;SHT31;53633;49.932;10.884;2023-04-15T05:54:03;6.92;88.01
66722;SHT31;53633;49.932;10.884;2023-04-15T05:56:29;6.88;88.46
66722;SHT31;53633;49.932;10.884;2023-04-15T05:58:56;6.85;88.57
66722;SHT31;53633;49.932;10.884;2023-04-15T06:01:24;6.83;88.42
66722;SHT31;53633;49.932;10.884;2023-04-15T06:03:51;6.78;88.96
66722;SHT31;53633;49.932;10.884;2023-04-15T06:06:18;6.78;89.18
66722;SHT31;53633;49.932;10.884;2023-04-15T06:08:44;6.79;89.45
66722;SHT31;53633;49.932;10.884;2023-04-15T06:11:11;6.68;90.64
66722;SHT31;53633;49.932;10.884;2023-04-15T06:13:38;6.67;91.64
66722;SHT31;53633;49.932;10.884;2023-04-15T06:16:05;6.55;91.93
66722;SHT31;53633;49.932;10.884;2023-04-15T06:18:33;6.68;91.27
66722;SHT31;53633;49.932;10.884;2023-04-15T06:21:00;6.69;91.34
66722;SHT31;53633;49.932;10.884;2023-04-15T06:23:26;6.61;91.72
66722;SHT31;53633;49.932;10.884;2023-04-15T06:25:53;6.61;91.41
66722;SHT31;53633;49.932;10.884;2023-04-15T06:28:20;6.65;91.70
66722;SHT31;53633;49.932;10.884;2023-04-15T06:30:46;6.69;92.26
66722;SHT31;53633;49.932;10.884;2023-04-15T06:33:13;6.97;90.45
66722;SHT31;53633;49.932;10.884;2023-04-15T06:35:41;7.06;89.60
66722;SHT31;53633;49.932;10.884;2023-04-15T06:38:08;6.97;90.18
66722;SHT31;53633;49.932;10.884;2023-04-15T06:40:34;7.11;89.64
66722;SHT31;53633;49.932;10.884;2023-04-15T06:43:01;7.11;90.66
66722;SHT31;53633;49.932;10.884;2023-04-15T06:45:28;7.26;89.58
66722;SHT31;53633;49.932;10.884;2023-04-15T06:47:54;7.45;88.60
66722;SHT31;53633;49.932;10.884;2023-04-15T06:50:21;7.41;88.92
66722;SHT31;53633;49.932;10.884;2023-04-15T06:52:49;7.48;88.99
66722;SHT31;53633;49.932;10.884;2023-04-15T06:55:16;7.43;89.06
66722;SHT31;53633;49.932;10.884;2023-04-15T06:57:43;7.45;89.34
66722;SHT31;53633;49.932;10.884;2023-04-15T07:00:10;7.51;88.74
66722;SHT31;53633;49.932;10.884;2023-04-15T07:02:37;7.68;88.15
66722;SHT31;53633;49.932;10.884;2023-04-15T07:05:05;7.75;87.78
66722;SHT31;53633;49.932;10.884;2023-04-15T07:07:32;7.76;87.75
66722;SHT31;53633;49.932;10.884;2023-04-15T07:10:00;7.76;87.74
66722;SHT31;53633;49.932;10.884;2023-04-15T07:12:27;7.90;87.75
66722;SHT31;53633;49.932;10.884;2023-04-15T07:14:53;7.82;88.81
66722;SHT31;53633;49.932;10.884;2023-04-15T07:17:20;7.93;87.88
66722;SHT31;53633;49.932;10.884;2023-04-15T07:19:47;8.02;87.71
66722;SHT31;53633;49.932;10.884;2023-04-15T07:22:13;7.96;87.92
66722;SHT31;53633;49.932;10.884;2023-04-15T07:24:40;7.89;87.96
66722;SHT31;53633;49.932;10.884;2023-04-15T07:27:08;7.92;88.03
66722;SHT31;53633;49.932;10.884;2023-04-15T07:29:35;7.92;88.50
66722;SHT31;53633;49.932;10.884;2023-04-15T07:32:01;7.96;88.29
66722;SHT31;53633;49.932;10.884;2023-04-15T07:34:28;7.96;88.32
66722;SHT31;53633;49.932;10.884;2023-04-15T07:36:57;8.03;88.26
66722;SHT31;53633;49.932;10.884;2023-04-15T07:39:24;7.96;88.67
66722;SHT31;53633;49.932;10.884;2023-04-15T07:41:50;7.89;88.68
66722;SHT31;53633;49.932;10.884;2023-04-15T07:44:18;7.93;88.66
66722;SHT31;53633;49.932;10.884;2023-04-15T07:46:45;8.02;88.73
66722;SHT31;53633;49.932;10.884;2023-04-15T07:49:12;8.02;89.12
66722;SHT31;53633;49.932;10.884;2023-04-15T07:51:38;8.02;90.66
66722;SHT31;53633;49.932;10.884;2023-04-15T07:54:06;8.14;89.87
66722;SHT31;53633;49.932;10.884;2023-04-15T07:56:32;8.33;88.78
66722;SHT31;53633;49.932;10.884;2023-04-15T07:58:59;8.34;89.61
66722;SHT31;53633;49.932;10.884;2023-04-15T08:01:27;8.37;88.81
66722;SHT31;53633;49.932;10.884;2023-04-15T08:03:54;8.24;91.47
66722;SHT31;53633;49.932;10.884;2023-04-15T08:06:21;8.27;90.04
66722;SHT31;53633;49.932;10.884;2023-04-15T08:08:48;8.26;89.44
66722;SHT31;53633;49.932;10.884;2023-04-15T08:11:14;7.96;90.73
66722;SHT31;53633;49.932;10.884;2023-04-15T08:13:41;8.16;89.23
66722;SHT31;53633;49.932;10.884;2023-04-15T08:16:17;8.24;89.26
66722;SHT31;53633;49.932;10.884;2023-04-15T08:18:46;8.07;92.41
66722;SHT31;53633;49.932;10.884;2023-04-15T08:21:12;8.13;90.33
66722;SHT31;53633;49.932;10.884;2023-04-15T08:23:39;8.17;91.21
66722;SHT31;53633;49.932;10.884;2023-04-15T08:26:06;8.26;91.04
66722;SHT31;53633;49.932;10.884;2023-04-15T08:28:32;8.13;91.11
66722;SHT31;53633;49.932;10.884;2023-04-15T08:30:59;8.12;91.40
66722;SHT31;53633;49.932;10.884;2023-04-15T08:33:26;8.29;89.96
66722;SHT31;53633;49.932;10.884;2023-04-15T08:35:54;8.34;89.30
66722;SHT31;53633;49.932;10.884;2023-04-15T08:38:20;8.42;89.08
66722;SHT31;53633;49.932;10.884;2023-04-15T08:40:47;8.42;89.40
66722;SHT31;53633;49.932;10.884;2023-04-15T08:43:18;8.40;88.05
66722;SHT31;53633;49.932;10.884;2023-04-15T08:45:47;8.34;88.28
66722;SHT31;53633;49.932;10.884;2023-04-15T08:48:15;8.44;88.31
66722;SHT31;53633;49.932;10.884;2023-04-15T08:50:42;8.50;88.20
66722;SHT31;53633;49.932;10.884;2023-04-15T08:53:10;8.30;89.76
66722;SHT31;53633;49.932;10.884;2023-04-15T08:55:41;8.40;88.53
66722;SHT31;53633;49.932;10.884;2023-04-15T08:58:09;8.26;88.40
66722;SHT31;53633;49.932;10.884;2023-04-15T09:00:36;8.26;88.90
66722;SHT31;53633;49.932;10.884;2023-04-15T09:03:03;8.30;88.77
66722;SHT31;53633;49.932;10.884;2023-04-15T09:05:31;8.31;88.65
66722;SHT31;53633;49.932;10.884;2023-04-15T09:07:57;8.34;88.54
66722;SHT31;53633;49.932;10.884;2023-04-15T09:10:26;8.36;88.60
66722;SHT31;53633;49.932;10.884;2023-04-15T09:12:53;8.38;88.81
66722;SHT31;53633;49.932;10.884;2023-04-15T09:15:19;8.38;88.50
66722;SHT31;53633;49.932;10.884;2023-04-15T09:17:46;8.38;88.45
66722;SHT31;53633;49.932;10.884;2023-04-15T09:20:14;8.36;88.47
66722;SHT31;53633;49.932;10.884;2023-04-15T09:22:43;8.44;88.56
66722;SHT31;53633;49.932;10.884;2023-04-15T09:25:28;8.40;88.45
66722;SHT31;53633;49.932;10.884;2023-04-15T09:27:57;8.47;88.38
66722;SHT31;53633;49.932;10.884;2023-04-15T09:30:24;8.47;89.31
66722;SHT31;53633;49.932;10.884;2023-04-15T09:32:52;8.51;89.45
66722;SHT31;53633;49.932;10.884;2023-04-15T09:35:20;8.64;88.22
66722;SHT31;53633;49.932;10.884;2023-04-15T09:37:47;8.67;88.15
66722;SHT31;53633;49.932;10.884;2023-04-15T09:40:14;8.76;87.91
66722;SHT31;53633;49.932;10.884;2023-04-15T09:42:58;8.83;87.52
66722;SHT31;53633;49.932;10.884;2023-04-15T09:45:25;8.85;87.74
66722;SHT31;53633;49.932;10.884;2023-04-15T09:47:56;8.78;88.43
66722;SHT31;53633;49.932;10.884;2023-04-15T09:50:27;8.67;89.91
66722;SHT31;53633;49.932;10.884;2023-04-15T09:52:54;8.83;88.09
66722;SHT31;53633;49.932;10.884;2023-04-15T09:55:20;8.86;88.63
66722;SHT31;53633;49.932;10.884;2023-04-15T09:57:47;8.88;88.53
66722;SHT31;53633;49.932;10.884;2023-04-15T10:00:15;9.02;87.75
66722;SHT31;53633;49.932;10.884;2023-04-15T10:02:42;9.07;87.35
66722;SHT31;53633;49.932;10.884;2023-04-15T10:05:10;8.89;88.20
66722;SHT31;53633;49.932;10.884;2023-04-15T10:07:39;8.78;89.44
66722;SHT31;53633;49.932;10.884;2023-04-15T10:10:07;8.90;88.06
66722;SHT31;53633;49.932;10.884;2023-04-15T10:12:36;8.95;87.62
66722;SHT31;53633;49.932;10.884;2023-04-15T10:15:04;8.86;87.84
66722;SHT31;53633;49.932;10.884;2023-04-15T10:17:33;8.86;87.78
66722;SHT31;53633;49.932;10.884;2023-04-15T10:20:01;8.75;88.44
66722;SHT31;53633;49.932;10.884;2023-04-15T10:22:27;8.73;88.20
66722;SHT31;53633;49.932;10.884;2023-04-15T10:24:55;8.79;88.12
66722;SHT31;53633;49.932;10.884;2023-04-15T10:27:22;8.82;88.20
66722;SHT31;53633;49.932;10.884;2023-04-15T10:29:50;8.80;88.16
66722;SHT31;53633;49.932;10.884;2023-04-15T10:32:18;8.90;87.96
66722;SHT31;53633;49.932;10.884;2023-04-15T10:34:48;9.05;87.90
66722;SHT31;53633;49.932;10.884;2023-04-15T10:37:19;9.19;87.95
66722;SHT31;53633;49.932;10.884;2023-04-15T10:39:46;9.34;87.21
66722;SHT31;53633;49.932;10.884;2023-04-15T10:42:15;9.40;87.22
66722;SHT31;53633;49.932;10.884;2023-04-15T10:44:43;9.51;86.69
66722;SHT31;53633;49.932;10.884;2023-04-15T10:47:12;9.48;86.58
66722;SHT31;53633;49.932;10.884;2023-04-15T10:49:43;9.55;85.77
66722;SHT31;53633;49.932;10.884;2023-04-15T10:52:11;9.74;85.29
66722;SHT31;53633;49.932;10.884;2023-04-15T10:54:38;9.82;87.17
66722;SHT31;53633;49.932;10.884;2023-04-15T10:57:13;9.92;85.57
66722;SHT31;53633;49.932;10.884;2023-04-15T11:00:02;9.86;84.79
66722;SHT31;53633;49.932;10.884;2023-04-15T11:02:43;9.98;84.87
66722;SHT31;53633;49.932;10.884;2023-04-15T11:05:11;9.98;85.22
66722;SHT31;53633;49.932;10.884;2023-04-15T11:07:48;9.81;85.06
66722;SHT31;53633;49.932;10.884;2023-04-15T11:13:22;9.75;84.51
66722;SHT31;53633;49.932;10.884;2023-04-15T11:15:50;9.68;85.29
66722;SHT31;53633;49.932;10.884;2023-04-15T11:18:17;9.72;85.44
66722;SHT31;53633;49.932;10.884;2023-04-15T11:20:45;9.65;85.51
66722;SHT31;53633;49.932;10.884;2023-04-15T11:23:14;9.77;85.44
66722;SHT31;53633;49.932;10.884;2023-04-15T11:25:42;9.81;85.38
66722;SHT31;53633;49.932;10.884;2023-04-15T11:28:10;9.68;85.10
66722;SHT31;53633;49.932;10.884;2023-04-15T11:30:38;9.58;84.79
66722;SHT31;53633;49.932;10.884;2023-04-15T11:33:06;9.58;84.92
66722;SHT31;53633;49.932;10.884;2023-04-15T11:35:34;9.48;86.35
66722;SHT31;53633;49.932;10.884;2023-04-15T11:38:02;9.51;85.59
66722;SHT31;53633;49.932;10.884;2023-04-15T11:40:30;9.61;85.31
66722;SHT31;53633;49.932;10.884;2023-04-15T11:43:04;9.40;84.91
66722;SHT31;53633;49.932;10.884;2023-04-15T11:45:31;9.38;85.34
66722;SHT31;53633;49.932;10.884;2023-04-15T11:48:05;9.43;85.67
66722;SHT31;53633;49.932;10.884;2023-04-15T11:50:31;9.34;87.08
66722;SHT31;53633;49.932;10.884;2023-04-15T11:52:59;9.31;85.62
66722;SHT31;53633;49.932;10.884;2023-04-15T11:55:26;9.51;85.42
66722;SHT31;53633;49.932;10.884;2023-04-15T11:58:07;9.83;85.58
66722;SHT31;53633;49.932;10.884;2023-04-15T12:00:34;9.99;84.73
66722;SHT31;53633;49.932;10.884;2023-04-15T12:03:12;10.03;84.15
66722;SHT31;53633;49.932;10.884;2023-04-15T12:09:11;9.83;84.67
66722;SHT31;53633;49.932;10.884;2023-04-15T12:11:43;9.81;85.10
66722;SHT31;53633;49.932;10.884;2023-04-15T12:14:15;9.93;84.47
66722;SHT31;53633;49.932;10.884;2023-04-15T12:16:44;10.01;84.71
66722;SHT31;53633;49.932;10.884;2023-04-15T12:19:17;10.12;84.21
66722;SHT31;53633;49.932;10.884;2023-04-15T12:21:45;9.89;85.17
66722;SHT31;53633;49.932;10.884;2023-04-15T12:24:13;10.16;84.11
66722;SHT31;53633;49.932;10.884;2023-04-15T12:26:44;10.03;85.75
66722;SHT31;53633;49.932;10.884;2023-04-15T12:29:13;10.10;83.79
66722;SHT31;53633;49.932;10.884;2023-04-15T12:31:47;10.26;83.46
66722;SHT31;53633;49.932;10.884;2023-04-15T12:34:14;10.33;83.50
66722;SHT31;53633;49.932;10.884;2023-04-15T12:36:40;10.40;82.86
66722;SHT31;53633;49.932;10.884;2023-04-15T12:39:07;10.60;82.83
66722;SHT31;53633;49.932;10.884;2023-04-15T12:41:34;10.68;82.83
66722;SHT31;53633;49.932;10.884;2023-04-15T12:44:01;10.58;83.23
66722;SHT31;53633;49.932;10.884;2023-04-15T12:46:29;10.53;82.85
66722;SHT31;53633;49.932;10.884;2023-04-15T12:48:56;10.41;82.83
66722;SHT31;53633;49.932;10.884;2023-04-15T12:51:22;10.17;83.45
66722;SHT31;53633;49.932;10.884;2023-04-15T12:53:49;10.34;83.16
66722;SHT31;53633;49.932;10.884;2023-04-15T12:56:16;10.20;83.17
66722;SHT31;53633;49.932;10.884;2023-04-15T12:58:43;10.19;83.34
66722;SHT31;53633;49.932;10.884;2023-04-15T13:01:11;10.19;83.79
66722;SHT31;53633;49.932;10.884;2023-04-15T13:03:39;10.12;83.24
66722;SHT31;53633;49.932;10.884;2023-04-15T13:06:06;10.13;83.52
66722;SHT31;53633;49.932;10.884;2023-04-15T13:08:33;10.09;83.98
66722;SHT31;53633;49.932;10.884;2023-04-15T13:11:02;9.95;84.36
66722;SHT31;53633;49.932;10.884;2023-04-15T13:13:29;9.93;84.04
66722;SHT31;53633;49.932;10.884;2023-04-15T13:15:55;9.93;83.32
66722;SHT31;53633;49.932;10.884;2023-04-15T13:18:22;9.77;84.69
66722;SHT31;53633;49.932;10.884;2023-04-15T13:20:50;9.78;84.21
66722;SHT31;53633;49.932;10.884;2023-04-15T13:23:17;9.81;84.25
66722;SHT31;53633;49.932;10.884;2023-04-15T13:25:44;9.81;84.45
66722;SHT31;53633;49.932;10.884;2023-04-15T13:28:10;9.86;84.39
66722;SHT31;53633;49.932;10.884;2023-04-15T13:30:38;9.68;84.70
66722;SHT31;53633;49.932;10.884;2023-04-15T13:33:04;9.78;84.48
66722;SHT31;53633;49.932;10.884;2023-04-15T13:35:31;9.68;84.86
66722;SHT31;53633;49.932;10.884;2023-04-15T13:38:00;9.74;84.97
66722;SHT31;53633;49.932;10.884;2023-04-15T13:40:26;9.79;85.20
66722;SHT31;53633;49.932;10.884;2023-04-15T13:42:53;9.85;85.07
66722;SHT31;53633;49.932;10.884;2023-04-15T13:45:20;9.88;84.87
66722;SHT31;53633;49.932;10.884;2023-04-15T13:47:46;9.89;84.79
66722;SHT31;53633;49.932;10.884;2023-04-15T13:50:13;9.88;84.90
66722;SHT31;53633;49.932;10.884;2023-04-15T13:52:40;9.81;84.68
66722;SHT31;53633;49.932;10.884;2023-04-15T13:55:09;9.83;84.86
66722;SHT31;53633;49.932;10.884;2023-04-15T13:57:46;9.92;84.61
66722;SHT31;53633;49.932;10.884;2023-04-15T14:00:13;9.75;84.19
66722;SHT31;53633;49.932;10.884;2023-04-15T14:02:40;9.71;84.47
66722;SHT31;53633;49.932;10.884;2023-04-15T14:05:08;9.74;84.64
66722;SHT31;53633;49.932;10.884;2023-04-15T14:07:34;9.45;85.31
66722;SHT31;53633;49.932;10.884;2023-04-15T14:10:01;9.50;85.51
66722;SHT31;53633;49.932;10.884;2023-04-15T14:12:29;9.68;84.99
66722;SHT31;53633;49.932;10.884;2023-04-15T14:14:56;9.68;84.64
66722;SHT31;53633;49.932;10.884;2023-04-15T14:17:23;9.55;84.97
66722;SHT31;53633;49.932;10.884;2023-04-15T14:19:50;9.65;85.04
66722;SHT31;53633;49.932;10.884;2023-04-15T14:22:16;9.67;84.67
66722;SHT31;53633;49.932;10.884;2023-04-15T14:24:43;9.51;85.18
66722;SHT31;53633;49.932;10.884;2023-04-15T14:27:10;9.43;85.44
66722;SHT31;53633;49.932;10.884;2023-04-15T14:29:38;9.44;85.36
66722;SHT31;53633;49.932;10.884;2023-04-15T14:32:05;9.57;85.11
66722;SHT31;53633;49.932;10.884;2023-04-15T14:34:38;9.55;85.16
66722;SHT31;53633;49.932;10.884;2023-04-15T14:37:04;9.59;85.07
66722;SHT31;53633;49.932;10.884;2023-04-15T14:39:31;9.61;85.13
66722;SHT31;53633;49.932;10.884;2023-04-15T14:41:58;9.67;85.38
66722;SHT31;53633;49.932;10.884;2023-04-15T14:44:24;9.68;85.58
66722;SHT31;53633;49.932;10.884;2023-04-15T14:46:52;9.71;85.72
66722;SHT31;53633;49.932;10.884;2023-04-15T14:49:19;9.65;86.44
66722;SHT31;53633;49.932;10.884;2023-04-15T14:51:46;9.59;88.55
66722;SHT31;53633;49.932;10.884;2023-04-15T14:54:12;9.71;86.57
66722;SHT31;53633;49.932;10.884;2023-04-15T14:56:39;9.68;86.95
66722;SHT31;53633;49.932;10.884;2023-04-15T14:59:05;9.81;86.57
66722;SHT31;53633;49.932;10.884;2023-04-15T15:01:32;9.96;86.47
66722;SHT31;53633;49.932;10.884;2023-04-15T15:04:00;9.92;86.66
66722;SHT31;53633;49.932;10.884;2023-04-15T15:06:27;9.70;87.46
66722;SHT31;53633;49.932;10.884;2023-04-15T15:08:54;9.74;87.22
66722;SHT31;53633;49.932;10.884;2023-04-15T15:11:21;9.91;86.96
66722;SHT31;53633;49.932;10.884;2023-04-15T15:13:47;10.03;87.00
66722;SHT31;53633;49.932;10.884;2023-04-15T15:16:14;9.86;88.61
66722;SHT31;53633;49.932;10.884;2023-04-15T15:18:41;10.08;87.17
66722;SHT31;53633;49.932;10.884;2023-04-15T15:21:09;10.02;86.95
66722;SHT31;53633;49.932;10.884;2023-04-15T15:23:35;9.93;86.53
66722;SHT31;53633;49.932;10.884;2023-04-15T15:26:02;9.83;88.29
66722;SHT31;53633;49.932;10.884;2023-04-15T15:28:29;9.86;87.04
66722;SHT31;53633;49.932;10.884;2023-04-15T15:30:56;9.83;86.65
66722;SHT31;53633;49.932;10.884;2023-04-15T15:33:22;9.88;86.86
66722;SHT31;53633;49.932;10.884;2023-04-15T15:35:49;9.88;87.05
66722;SHT31;53633;49.932;10.884;2023-04-15T15:38:17;9.78;88.30